createdAt,value
2022-11-20T00:00:24.087Z,0.00
2022-11-20T00:01:24.065Z,0.00
2022-11-20T00:02:24.061Z,0.00
2022-11-20T00:03:24.019Z,0.00
2022-11-20T00:04:23.993Z,0.00
2022-11-20T00:05:24.002Z,0.00
2022-11-20T00:06:23.996Z,0.00
2022-11-20T00:07:23.956Z,0.00
2022-11-20T00:08:23.903Z,0.00
2022-11-20T00:09:24.008Z,0.00
2022-11-20T00:10:23.857Z,0.00
2022-11-20T00:11:23.834Z,0.00
2022-11-20T00:12:23.835Z,0.00
2022-11-20T00:13:23.789Z,0.00
2022-11-20T00:14:23.769Z,0.00
2022-11-20T00:15:23.746Z,0.00
2022-11-20T00:16:23.742Z,0.00
2022-11-20T00:17:23.696Z,0.00
2022-11-20T00:18:23.680Z,0.00
2022-11-20T00:19:23.747Z,0.00
2022-11-20T00:20:23.624Z,0.00
2022-11-20T00:21:23.608Z,0.00
2022-11-20T00:22:23.586Z,0.00
2022-11-20T00:23:23.586Z,0.00
2022-11-20T00:24:23.585Z,0.00
2022-11-20T00:25:23.510Z,0.00
2022-11-20T00:26:23.486Z,0.00
2022-11-20T00:27:23.461Z,0.00
2022-11-20T00:28:23.439Z,0.00
2022-11-20T00:29:23.647Z,0.00
2022-11-20T00:30:23.414Z,0.00
2022-11-20T00:31:23.368Z,0.00
2022-11-20T00:32:23.346Z,0.00
2022-11-20T00:33:23.327Z,0.00
2022-11-20T00:34:23.331Z,0.00
2022-11-20T00:35:23.281Z,0.00
2022-11-20T00:36:23.269Z,0.00
2022-11-20T00:37:23.241Z,0.00
2022-11-20T00:38:23.209Z,0.00
2022-11-20T00:39:23.621Z,0.00
2022-11-20T00:40:23.166Z,0.00
2022-11-20T00:41:23.142Z,0.00
2022-11-20T00:42:23.126Z,0.00
2022-11-20T00:43:23.097Z,0.00
2022-11-20T00:44:23.072Z,0.00
2022-11-20T00:45:23.073Z,0.00
2022-11-20T00:46:23.041Z,0.00
2022-11-20T00:47:23.011Z,0.00
2022-11-20T00:48:22.980Z,0.00
2022-11-20T00:49:23.411Z,0.00
2022-11-20T00:50:22.960Z,0.00
2022-11-20T00:51:22.912Z,0.00
2022-11-20T00:52:22.882Z,0.00
2022-11-20T00:53:22.864Z,0.00
2022-11-20T00:54:22.841Z,0.00
2022-11-20T00:55:22.871Z,0.00
2022-11-20T00:56:22.831Z,0.00
2022-11-20T00:57:22.775Z,0.00
2022-11-20T00:58:22.776Z,0.00
2022-11-20T00:59:23.044Z,0.00
2022-11-20T01:00:22.707Z,0.00
2022-11-20T01:01:22.970Z,0.00
2022-11-20T01:02:22.685Z,0.00
2022-11-20T01:03:26.884Z,0.00
2022-11-20T01:04:22.641Z,0.00
2022-11-20T01:05:22.591Z,0.00
2022-11-20T01:06:22.588Z,0.00
2022-11-20T01:07:22.623Z,0.00
2022-11-20T01:08:22.521Z,0.00
2022-11-20T01:09:22.721Z,0.00
2022-11-20T01:10:22.481Z,0.00
2022-11-20T01:11:22.452Z,0.00
2022-11-20T01:12:22.427Z,0.00
2022-11-20T01:13:25.612Z,0.00
2022-11-20T01:14:22.406Z,0.00
2022-11-20T01:15:22.383Z,0.00
2022-11-20T01:16:22.342Z,0.00
2022-11-20T01:17:22.316Z,0.00
2022-11-20T01:18:22.350Z,0.00
2022-11-20T01:19:22.441Z,0.00
2022-11-20T01:20:22.270Z,0.00
2022-11-20T01:21:22.219Z,0.00
2022-11-20T01:22:22.232Z,0.00
2022-11-20T01:23:22.176Z,0.00
2022-11-20T01:24:22.151Z,0.00
2022-11-20T01:25:22.126Z,0.00
2022-11-20T01:26:22.107Z,0.00
2022-11-20T01:27:22.106Z,0.00
2022-11-20T01:28:22.053Z,0.00
2022-11-20T01:29:22.308Z,0.00
2022-11-20T01:30:22.073Z,0.00
2022-11-20T01:31:21.996Z,0.00
2022-11-20T01:32:21.963Z,0.00
2022-11-20T01:33:21.946Z,0.00
2022-11-20T01:34:21.917Z,0.00
2022-11-20T01:35:21.917Z,0.00
2022-11-20T01:36:21.898Z,0.00
2022-11-20T01:37:21.854Z,0.00
2022-11-20T01:38:21.823Z,0.00
2022-11-20T01:39:22.089Z,0.00
2022-11-20T01:40:21.777Z,0.00
2022-11-20T01:41:21.802Z,0.00
2022-11-20T01:42:21.733Z,0.00
2022-11-20T01:43:21.709Z,0.00
2022-11-20T01:44:21.692Z,0.00
2022-11-20T01:45:21.665Z,0.00
2022-11-20T01:46:21.644Z,0.00
2022-11-20T01:47:21.625Z,0.00
2022-11-20T01:48:21.600Z,0.00
2022-11-20T01:49:21.797Z,0.00
2022-11-20T01:50:21.555Z,0.00
2022-11-20T01:51:21.525Z,0.00
2022-11-20T01:52:21.531Z,0.00
2022-11-20T01:53:21.485Z,0.00
2022-11-20T01:54:21.455Z,0.00
2022-11-20T01:55:21.439Z,0.00
2022-11-20T01:56:21.422Z,0.00
2022-11-20T01:57:21.430Z,0.00
2022-11-20T01:58:21.409Z,0.00
2022-11-20T01:59:21.713Z,0.00
2022-11-20T02:00:21.332Z,0.00
2022-11-20T02:01:21.348Z,0.00
2022-11-20T02:02:21.272Z,0.00
2022-11-20T02:03:21.258Z,0.00
2022-11-20T02:04:21.258Z,0.00
2022-11-20T02:05:21.203Z,0.00
2022-11-20T02:06:21.190Z,0.00
2022-11-20T02:07:21.189Z,0.00
2022-11-20T02:08:21.133Z,0.00
2022-11-20T02:09:21.459Z,0.00
2022-11-20T02:10:21.084Z,0.00
2022-11-20T02:11:21.062Z,0.00
2022-11-20T02:12:21.039Z,0.00
2022-11-20T02:13:21.019Z,0.00
2022-11-20T02:14:21.033Z,0.00
2022-11-20T02:15:20.972Z,0.00
2022-11-20T02:16:20.954Z,0.00
2022-11-20T02:17:20.922Z,0.00
2022-11-20T02:18:20.907Z,0.00
2022-11-20T02:19:21.131Z,0.00
2022-11-20T02:20:20.857Z,0.00
2022-11-20T02:21:20.830Z,0.00
2022-11-20T02:22:20.809Z,0.00
2022-11-20T02:23:20.783Z,0.00
2022-11-20T02:24:20.791Z,0.00
2022-11-20T02:25:20.792Z,0.00
2022-11-20T02:26:20.715Z,0.00
2022-11-20T02:27:20.702Z,0.00
2022-11-20T02:28:20.695Z,0.00
2022-11-20T02:29:20.826Z,0.00
2022-11-20T02:30:20.631Z,0.00
2022-11-20T02:31:20.609Z,0.00
2022-11-20T02:32:20.582Z,0.00
2022-11-20T02:33:20.551Z,0.00
2022-11-20T02:34:20.561Z,0.00
2022-11-20T02:35:20.513Z,0.00
2022-11-20T02:36:20.513Z,0.00
2022-11-20T02:37:20.462Z,0.00
2022-11-20T02:38:20.441Z,0.00
2022-11-20T02:39:20.616Z,0.00
2022-11-20T02:40:20.419Z,0.00
2022-11-20T02:41:20.369Z,0.00
2022-11-20T02:42:20.348Z,0.00
2022-11-20T02:43:20.326Z,0.00
2022-11-20T02:44:20.306Z,0.00
2022-11-20T02:45:20.303Z,0.00
2022-11-20T02:46:20.270Z,0.00
2022-11-20T02:47:20.234Z,0.00
2022-11-20T02:48:20.234Z,0.00
2022-11-20T02:49:20.498Z,0.00
2022-11-20T02:50:20.161Z,0.00
2022-11-20T02:51:20.133Z,0.00
2022-11-20T02:52:20.143Z,0.00
2022-11-20T02:53:20.090Z,0.00
2022-11-20T02:54:20.112Z,0.00
2022-11-20T02:55:20.044Z,0.00
2022-11-20T02:56:20.029Z,0.00
2022-11-20T02:57:19.998Z,0.00
2022-11-20T02:58:19.978Z,0.00
2022-11-20T02:59:20.258Z,0.00
2022-11-20T03:00:19.938Z,0.00
2022-11-20T03:01:19.928Z,0.00
2022-11-20T03:02:19.883Z,0.00
2022-11-20T03:03:19.860Z,0.00
2022-11-20T03:04:19.838Z,0.00
2022-11-20T03:05:20.009Z,0.00
2022-11-20T03:06:19.797Z,0.00
2022-11-20T03:07:19.778Z,0.00
2022-11-20T03:08:19.747Z,0.00
2022-11-20T03:09:20.046Z,0.00
2022-11-20T03:10:19.700Z,0.00
2022-11-20T03:11:19.706Z,0.00
2022-11-20T03:12:19.649Z,0.00
2022-11-20T03:13:19.632Z,0.00
2022-11-20T03:14:19.609Z,0.00
2022-11-20T03:15:19.578Z,0.00
2022-11-20T03:16:19.623Z,0.00
2022-11-20T03:17:19.535Z,0.00
2022-11-20T03:18:19.510Z,0.00
2022-11-20T03:19:19.821Z,0.00
2022-11-20T03:20:19.465Z,0.00
2022-11-20T03:21:19.449Z,0.00
2022-11-20T03:22:19.423Z,0.00
2022-11-20T03:23:19.398Z,0.00
2022-11-20T03:24:19.377Z,0.00
2022-11-20T03:25:19.351Z,0.00
2022-11-20T03:26:19.327Z,0.00
2022-11-20T03:27:19.371Z,0.00
2022-11-20T03:28:19.279Z,0.00
2022-11-20T03:29:19.651Z,0.00
2022-11-20T03:30:19.257Z,0.00
2022-11-20T03:31:19.217Z,0.00
2022-11-20T03:32:19.218Z,0.00
2022-11-20T03:33:19.159Z,0.00
2022-11-20T03:34:19.145Z,0.00
2022-11-20T03:35:19.145Z,0.00
2022-11-20T03:36:19.141Z,0.00
2022-11-20T03:37:19.193Z,0.00
2022-11-20T03:38:19.115Z,0.00
2022-11-20T03:39:19.238Z,0.00
2022-11-20T03:40:19.001Z,0.00
2022-11-20T03:41:18.980Z,0.00
2022-11-20T03:42:18.954Z,0.00
2022-11-20T03:43:18.954Z,0.00
2022-11-20T03:44:18.910Z,0.00
2022-11-20T03:45:18.896Z,0.00
2022-11-20T03:46:18.863Z,0.00
2022-11-20T03:47:18.838Z,0.00
2022-11-20T03:48:18.878Z,0.00
2022-11-20T03:49:18.968Z,0.00
2022-11-20T03:50:18.768Z,0.00
2022-11-20T03:51:18.742Z,0.00
2022-11-20T03:52:18.722Z,0.00
2022-11-20T03:53:18.697Z,0.00
2022-11-20T03:54:18.688Z,0.00
2022-11-20T03:55:18.651Z,0.00
2022-11-20T03:56:18.629Z,0.00
2022-11-20T03:57:18.602Z,0.00
2022-11-20T03:58:18.584Z,0.00
2022-11-20T03:59:18.907Z,0.00
2022-11-20T04:00:18.542Z,0.00
2022-11-20T04:01:18.558Z,0.00
2022-11-20T04:02:18.526Z,0.00
2022-11-20T04:03:18.462Z,0.00
2022-11-20T04:04:18.467Z,0.00
2022-11-20T04:05:18.446Z,0.00
2022-11-20T04:06:18.402Z,0.00
2022-11-20T04:07:18.439Z,0.00
2022-11-20T04:08:18.351Z,0.00
2022-11-20T04:09:18.427Z,0.00
2022-11-20T04:10:18.344Z,0.00
2022-11-20T04:11:18.304Z,0.00
2022-11-20T04:12:18.259Z,0.00
2022-11-20T04:13:18.238Z,0.00
2022-11-20T04:14:18.212Z,0.00
2022-11-20T04:15:18.185Z,0.00
2022-11-20T04:16:18.169Z,0.00
2022-11-20T04:17:18.141Z,0.00
2022-11-20T04:18:18.123Z,0.00
2022-11-20T04:19:18.258Z,0.00
2022-11-20T04:20:18.079Z,0.00
2022-11-20T04:21:18.078Z,0.00
2022-11-20T04:22:18.024Z,0.00
2022-11-20T04:23:18.044Z,0.00
2022-11-20T04:24:17.977Z,0.00
2022-11-20T04:25:17.955Z,0.00
2022-11-20T04:26:17.943Z,0.00
2022-11-20T04:27:17.905Z,0.00
2022-11-20T04:28:18.008Z,0.00
2022-11-20T04:29:17.962Z,0.00
2022-11-20T04:30:17.839Z,0.00
2022-11-20T04:31:17.812Z,0.00
2022-11-20T04:32:17.810Z,0.00
2022-11-20T04:33:17.853Z,0.00
2022-11-20T04:34:17.750Z,0.00
2022-11-20T04:35:17.723Z,0.00
2022-11-20T04:36:17.701Z,0.00
2022-11-20T04:37:17.673Z,0.00
2022-11-20T04:38:17.780Z,0.00
2022-11-20T04:39:17.728Z,0.00
2022-11-20T04:40:17.609Z,0.00
2022-11-20T04:41:17.588Z,0.00
2022-11-20T04:42:17.596Z,0.00
2022-11-20T04:43:17.559Z,0.00
2022-11-20T04:44:17.514Z,0.00
2022-11-20T04:45:17.486Z,0.00
2022-11-20T04:46:17.463Z,0.00
2022-11-20T04:47:17.442Z,0.00
2022-11-20T04:48:17.469Z,0.00
2022-11-20T04:49:17.407Z,0.00
2022-11-20T04:50:17.370Z,0.00
2022-11-20T04:51:17.347Z,0.00
2022-11-20T04:52:17.323Z,0.00
2022-11-20T04:53:17.299Z,0.00
2022-11-20T04:54:17.280Z,0.00
2022-11-20T04:55:17.252Z,0.00
2022-11-20T04:56:17.241Z,0.00
2022-11-20T04:57:17.215Z,0.00
2022-11-20T04:58:17.186Z,0.00
2022-11-20T04:59:17.200Z,0.00
2022-11-20T05:00:17.136Z,0.00
2022-11-20T05:01:17.210Z,0.00
2022-11-20T05:02:17.091Z,0.00
2022-11-20T05:03:17.091Z,0.00
2022-11-20T05:04:17.045Z,0.00
2022-11-20T05:05:17.060Z,0.00
2022-11-20T05:06:16.999Z,0.00
2022-11-20T05:07:16.994Z,0.00
2022-11-20T05:08:16.952Z,0.00
2022-11-20T05:09:16.933Z,0.00
2022-11-20T05:10:16.908Z,0.00
2022-11-20T05:11:16.881Z,0.00
2022-11-20T05:12:16.859Z,0.00
2022-11-20T05:13:16.832Z,0.00
2022-11-20T05:14:16.809Z,0.00
2022-11-20T05:15:16.788Z,0.00
2022-11-20T05:16:16.796Z,0.00
2022-11-20T05:17:16.762Z,0.00
2022-11-20T05:18:16.720Z,0.00
2022-11-20T05:19:16.713Z,0.00
2022-11-20T05:20:16.803Z,0.00
2022-11-20T05:21:16.693Z,0.00
2022-11-20T05:22:16.622Z,0.00
2022-11-20T05:23:16.597Z,0.00
2022-11-20T05:24:16.581Z,0.00
2022-11-20T05:25:16.578Z,0.00
2022-11-20T05:26:16.561Z,0.00
2022-11-20T05:27:16.504Z,0.00
2022-11-20T05:28:16.486Z,0.00
2022-11-20T05:29:16.459Z,0.00
2022-11-20T05:30:16.437Z,0.00
2022-11-20T05:31:17.322Z,0.00
2022-11-20T05:32:16.393Z,0.00
2022-11-20T05:33:16.366Z,0.00
2022-11-20T05:34:16.346Z,0.00
2022-11-20T05:35:16.375Z,0.00
2022-11-20T05:36:16.303Z,0.00
2022-11-20T05:37:16.271Z,0.00
2022-11-20T05:38:16.262Z,0.00
2022-11-20T05:39:16.225Z,0.00
2022-11-20T05:40:16.218Z,0.00
2022-11-20T05:41:16.214Z,0.00
2022-11-20T05:42:16.160Z,0.00
2022-11-20T05:43:16.129Z,0.00
2022-11-20T05:44:16.141Z,0.00
2022-11-20T05:45:16.088Z,0.00
2022-11-20T05:46:16.065Z,0.00
2022-11-20T05:47:16.038Z,0.00
2022-11-20T05:48:16.024Z,0.00
2022-11-20T05:49:16.033Z,0.00
2022-11-20T05:50:15.971Z,0.00
2022-11-20T05:51:15.952Z,0.00
2022-11-20T05:52:15.921Z,0.00
2022-11-20T05:53:15.898Z,0.00
2022-11-20T05:54:15.875Z,0.00
2022-11-20T05:55:15.852Z,0.00
2022-11-20T05:56:15.831Z,0.00
2022-11-20T05:57:15.804Z,0.00
2022-11-20T05:58:15.783Z,0.00
2022-11-20T05:59:15.759Z,0.00
2022-11-20T06:00:15.788Z,0.00
2022-11-20T06:01:15.711Z,0.00
2022-11-20T06:02:15.725Z,0.00
2022-11-20T06:03:15.662Z,0.00
2022-11-20T06:04:15.643Z,0.00
2022-11-20T06:05:15.625Z,0.00
2022-11-20T06:06:15.650Z,0.00
2022-11-20T06:07:15.616Z,0.00
2022-11-20T06:08:15.554Z,0.00
2022-11-20T06:09:15.526Z,0.00
2022-11-20T06:10:15.504Z,0.00
2022-11-20T06:11:15.496Z,0.00
2022-11-20T06:12:15.461Z,0.00
2022-11-20T06:13:15.432Z,0.00
2022-11-20T06:14:15.478Z,0.00
2022-11-20T06:15:15.387Z,0.00
2022-11-20T06:16:15.366Z,0.00
2022-11-20T06:17:15.337Z,0.00
2022-11-20T06:18:15.321Z,0.00
2022-11-20T06:19:15.347Z,0.00
2022-11-20T06:20:15.302Z,0.00
2022-11-20T06:21:15.257Z,0.00
2022-11-20T06:22:15.313Z,0.00
2022-11-20T06:23:15.199Z,4.00
2022-11-20T06:24:15.180Z,0.00
2022-11-20T06:25:15.186Z,4.00
2022-11-20T06:26:15.128Z,0.00
2022-11-20T06:27:15.108Z,4.00
2022-11-20T06:28:15.083Z,4.00
2022-11-20T06:29:15.088Z,4.00
2022-11-20T06:30:15.035Z,4.00
2022-11-20T06:31:15.047Z,8.00
2022-11-20T06:32:14.993Z,8.00
2022-11-20T06:33:14.969Z,8.00
2022-11-20T06:34:14.949Z,8.00
2022-11-20T06:35:14.925Z,12.00
2022-11-20T06:36:14.913Z,12.00
2022-11-20T06:37:14.878Z,16.00
2022-11-20T06:38:14.851Z,16.00
2022-11-20T06:39:14.838Z,16.00
2022-11-20T06:40:14.812Z,20.00
2022-11-20T06:41:14.785Z,24.00
2022-11-20T06:42:14.824Z,28.00
2022-11-20T06:43:14.743Z,32.00
2022-11-20T06:44:14.710Z,36.00
2022-11-20T06:45:14.694Z,40.00
2022-11-20T06:46:14.668Z,44.00
2022-11-20T06:47:14.643Z,48.00
2022-11-20T06:48:14.647Z,56.00
2022-11-20T06:49:14.599Z,64.00
2022-11-20T06:50:14.634Z,72.00
2022-11-20T06:51:14.551Z,76.00
2022-11-20T06:52:14.539Z,84.00
2022-11-20T06:53:14.532Z,92.00
2022-11-20T06:54:14.483Z,104.00
2022-11-20T06:55:14.462Z,112.00
2022-11-20T06:56:14.435Z,124.00
2022-11-20T06:57:14.414Z,128.00
2022-11-20T06:58:14.385Z,136.00
2022-11-20T06:59:14.418Z,152.00
2022-11-20T07:00:14.345Z,156.00
2022-11-20T07:01:14.341Z,172.00
2022-11-20T07:02:14.295Z,188.00
2022-11-20T07:03:14.277Z,204.00
2022-11-20T07:04:14.249Z,220.00
2022-11-20T07:05:14.259Z,232.00
2022-11-20T07:06:14.204Z,244.00
2022-11-20T07:07:14.222Z,260.00
2022-11-20T07:08:14.160Z,272.00
2022-11-20T07:09:14.146Z,284.00
2022-11-20T07:10:14.183Z,300.00
2022-11-20T07:11:14.088Z,312.00
2022-11-20T07:12:14.062Z,328.00
2022-11-20T07:13:14.050Z,324.00
2022-11-20T07:14:14.016Z,328.00
2022-11-20T07:15:13.995Z,340.00
2022-11-20T07:16:13.972Z,360.00
2022-11-20T07:17:13.951Z,388.00
2022-11-20T07:18:13.925Z,412.00
2022-11-20T07:19:13.907Z,468.00
2022-11-20T07:20:13.877Z,492.00
2022-11-20T07:21:13.905Z,488.00
2022-11-20T07:22:13.835Z,472.00
2022-11-20T07:23:13.819Z,452.00
2022-11-20T07:24:13.785Z,436.00
2022-11-20T07:25:13.762Z,428.00
2022-11-20T07:26:13.740Z,424.00
2022-11-20T07:27:13.748Z,428.00
2022-11-20T07:28:13.697Z,440.00
2022-11-20T07:29:13.680Z,456.00
2022-11-20T07:30:13.650Z,472.00
2022-11-20T07:31:18.844Z,472.00
2022-11-20T07:32:13.601Z,472.00
2022-11-20T07:33:13.579Z,480.00
2022-11-20T07:34:13.554Z,496.00
2022-11-20T07:35:13.556Z,520.00
2022-11-20T07:36:13.536Z,548.00
2022-11-20T07:37:13.488Z,568.00
2022-11-20T07:38:13.467Z,580.00
2022-11-20T07:39:13.438Z,600.00
2022-11-20T07:40:13.413Z,600.00
2022-11-20T07:41:13.410Z,596.00
2022-11-20T07:42:13.396Z,604.00
2022-11-20T07:43:13.350Z,628.00
2022-11-20T07:44:13.324Z,632.00
2022-11-20T07:45:13.300Z,648.00
2022-11-20T07:46:13.304Z,648.00
2022-11-20T07:47:13.255Z,640.00
2022-11-20T07:48:13.235Z,632.00
2022-11-20T07:49:13.210Z,632.00
2022-11-20T07:50:13.184Z,636.00
2022-11-20T07:51:13.191Z,632.00
2022-11-20T07:52:13.140Z,644.00
2022-11-20T07:53:13.146Z,672.00
2022-11-20T07:54:13.097Z,704.00
2022-11-20T07:55:13.075Z,716.00
2022-11-20T07:56:13.051Z,716.00
2022-11-20T07:57:13.025Z,704.00
2022-11-20T07:58:13.030Z,688.00
2022-11-20T07:59:12.982Z,692.00
2022-11-20T08:00:12.968Z,716.00
2022-11-20T08:01:13.013Z,732.00
2022-11-20T08:02:12.921Z,740.00
2022-11-20T08:03:12.941Z,772.00
2022-11-20T08:04:12.866Z,808.00
2022-11-20T08:05:12.843Z,832.00
2022-11-20T08:06:12.822Z,848.00
2022-11-20T08:07:12.879Z,848.00
2022-11-20T08:08:12.771Z,840.00
2022-11-20T08:09:12.789Z,812.00
2022-11-20T08:10:12.726Z,768.00
2022-11-20T08:11:12.733Z,744.00
2022-11-20T08:12:12.701Z,744.00
2022-11-20T08:13:12.669Z,760.00
2022-11-20T08:14:12.638Z,792.00
2022-11-20T08:15:13.473Z,824.00
2022-11-20T08:16:12.631Z,864.00
2022-11-20T08:17:12.605Z,916.00
2022-11-20T08:19:12.573Z,1024.00
2022-11-20T08:20:12.549Z,1076.00
2022-11-20T08:21:12.530Z,1108.00
2022-11-20T08:22:12.457Z,1132.00
2022-11-20T08:23:12.433Z,1164.00
2022-11-20T08:24:12.437Z,1208.00
2022-11-20T08:25:12.403Z,1264.00
2022-11-20T08:26:12.366Z,1280.00
2022-11-20T08:27:12.344Z,1280.00
2022-11-20T08:28:20.333Z,1260.00
2022-11-20T08:29:12.358Z,1228.00
2022-11-20T08:30:12.272Z,1160.00
2022-11-20T08:31:12.269Z,1132.00
2022-11-20T08:32:12.227Z,1160.00
2022-11-20T08:33:12.215Z,1168.00
2022-11-20T08:34:17.654Z,1176.00
2022-11-20T08:35:12.168Z,1168.00
2022-11-20T08:36:12.147Z,1152.00
2022-11-20T08:37:12.118Z,1176.00
2022-11-20T08:38:12.096Z,1228.00
2022-11-20T08:39:12.071Z,1280.00
2022-11-20T08:40:14.753Z,1324.00
2022-11-20T08:41:12.090Z,1376.00
2022-11-20T08:42:12.020Z,1436.00
2022-11-20T08:43:11.981Z,1476.00
2022-11-20T08:44:11.960Z,1508.00
2022-11-20T08:45:11.946Z,1548.00
2022-11-20T08:46:11.917Z,1600.00
2022-11-20T08:47:11.905Z,1624.00
2022-11-20T08:48:11.869Z,1664.00
2022-11-20T08:49:11.856Z,1760.00
2022-11-20T08:50:11.825Z,1860.00
2022-11-20T08:51:11.801Z,1976.00
2022-11-20T08:52:11.841Z,2120.00
2022-11-20T08:53:11.762Z,2104.00
2022-11-20T08:54:11.737Z,2084.00
2022-11-20T08:55:11.713Z,2036.00
2022-11-20T08:56:11.687Z,2028.00
2022-11-20T08:57:11.664Z,2036.00
2022-11-20T08:58:11.681Z,2060.00
2022-11-20T08:59:36.892Z,2140.00
2022-11-20T09:00:11.834Z,2252.00
2022-11-20T09:01:11.641Z,2404.00
2022-11-20T09:02:11.549Z,2352.00
2022-11-20T09:03:11.535Z,2348.00
2022-11-20T09:04:11.646Z,2352.00
2022-11-20T09:05:11.497Z,2428.00
2022-11-20T09:06:11.462Z,2548.00
2022-11-20T09:07:11.477Z,2700.00
2022-11-20T09:08:11.417Z,2864.00
2022-11-20T09:09:11.396Z,3048.00
2022-11-20T09:10:23.701Z,3140.00
2022-11-20T09:11:11.422Z,3068.00
2022-11-20T09:12:11.341Z,2880.00
2022-11-20T09:13:11.309Z,2780.00
2022-11-20T09:14:11.284Z,2688.00
2022-11-20T09:15:11.269Z,2868.00
2022-11-20T09:16:11.236Z,2904.00
2022-11-20T09:17:11.228Z,2988.00
2022-11-20T09:18:11.196Z,3052.00
2022-11-20T09:19:34.599Z,3096.00
2022-11-20T09:20:11.152Z,3056.00
2022-11-20T09:21:11.213Z,3044.00
2022-11-20T09:22:11.120Z,3032.00
2022-11-20T09:23:11.083Z,2988.00
2022-11-20T09:24:11.062Z,2972.00
2022-11-20T09:25:11.041Z,3088.00
2022-11-20T09:26:11.043Z,3080.00
2022-11-20T09:27:10.996Z,3160.00
2022-11-20T09:28:10.972Z,3112.00
2022-11-20T09:29:11.036Z,3052.00
2022-11-20T09:30:11.983Z,2936.00
2022-11-20T09:31:10.909Z,2884.00
2022-11-20T09:32:10.884Z,2808.00
2022-11-20T09:33:10.878Z,2868.00
2022-11-20T09:34:11.270Z,2904.00
2022-11-20T09:35:11.133Z,3016.00
2022-11-20T09:36:11.057Z,2960.00
2022-11-20T09:37:10.980Z,2928.00
2022-11-20T09:38:10.994Z,2872.00
2022-11-20T09:39:10.749Z,2948.00
2022-11-20T09:40:10.764Z,2980.00
2022-11-20T09:41:10.737Z,2984.00
2022-11-20T09:42:10.667Z,3052.00
2022-11-20T09:43:10.675Z,3092.00
2022-11-20T09:44:10.621Z,3112.00
2022-11-20T09:45:10.608Z,3136.00
2022-11-20T09:46:10.578Z,3108.00
2022-11-20T09:47:10.582Z,3112.00
2022-11-20T09:48:11.507Z,2924.00
2022-11-20T09:49:10.585Z,2696.00
2022-11-20T09:50:10.487Z,2624.00
2022-11-20T09:51:10.470Z,2604.00
2022-11-20T09:52:10.453Z,2624.00
2022-11-20T09:53:10.428Z,2620.00
2022-11-20T09:54:10.404Z,2484.00
2022-11-20T09:55:10.421Z,2484.00
2022-11-20T09:56:10.357Z,2472.00
2022-11-20T09:57:10.339Z,2524.00
2022-11-20T09:58:10.336Z,2508.00
2022-11-20T09:59:10.296Z,2532.00
2022-11-20T10:00:10.302Z,2556.00
2022-11-20T10:01:10.670Z,2760.00
2022-11-20T10:02:10.225Z,2980.00
2022-11-20T10:03:10.267Z,3444.00
2022-11-20T10:04:10.182Z,3376.00
2022-11-20T10:05:10.165Z,3444.00
2022-11-20T10:06:10.137Z,3368.00
2022-11-20T10:07:31.320Z,3416.00
2022-11-20T10:08:10.148Z,3288.00
2022-11-20T10:09:10.090Z,3360.00
2022-11-20T10:10:10.077Z,3388.00
2022-11-20T10:11:10.032Z,3516.00
2022-11-20T10:12:10.013Z,3492.00
2022-11-20T10:13:09.987Z,3476.00
2022-11-20T10:14:09.967Z,3488.00
2022-11-20T10:15:10.016Z,3532.00
2022-11-20T10:16:09.920Z,3100.00
2022-11-20T10:17:09.913Z,3300.00
2022-11-20T10:18:09.879Z,3400.00
2022-11-20T10:19:09.860Z,3508.00
2022-11-20T10:20:09.833Z,3552.00
2022-11-20T10:21:09.843Z,3500.00
2022-11-20T10:22:09.789Z,3504.00
2022-11-20T10:23:09.799Z,3548.00
2022-11-20T10:24:09.745Z,3604.00
2022-11-20T10:25:09.745Z,3820.00
2022-11-20T10:26:09.743Z,3864.00
2022-11-20T10:27:09.685Z,3876.00
2022-11-20T10:28:09.659Z,3796.00
2022-11-20T10:29:09.646Z,3980.00
2022-11-20T10:30:09.624Z,3908.00
2022-11-20T10:31:09.596Z,3836.00
2022-11-20T10:32:09.573Z,3796.00
2022-11-20T10:33:09.555Z,4008.00
2022-11-20T10:34:13.144Z,4024.00
2022-11-20T10:35:09.514Z,4000.00
2022-11-20T10:36:09.496Z,4164.00
2022-11-20T10:37:09.470Z,4212.00
2022-11-20T10:38:09.443Z,4332.00
2022-11-20T10:39:09.427Z,4516.00
2022-11-20T10:40:09.409Z,4508.00
2022-11-20T10:41:09.446Z,4480.00
2022-11-20T10:42:09.369Z,4468.00
2022-11-20T10:43:09.335Z,4432.00
2022-11-20T10:44:09.313Z,4548.00
2022-11-20T10:45:09.290Z,4636.00
2022-11-20T10:46:09.277Z,4676.00
2022-11-20T10:47:09.258Z,4764.00
2022-11-20T10:48:09.237Z,4772.00
2022-11-20T10:49:09.208Z,4780.00
2022-11-20T10:50:09.186Z,4816.00
2022-11-20T10:51:09.171Z,4788.00
2022-11-20T10:52:09.145Z,4728.00
2022-11-20T10:53:09.132Z,4776.00
2022-11-20T10:54:09.137Z,4884.00
2022-11-20T10:55:09.082Z,4980.00
2022-11-20T10:56:09.061Z,4940.00
2022-11-20T10:57:09.039Z,4996.00
2022-11-20T10:58:09.021Z,4984.00
2022-11-20T10:59:08.997Z,4844.00
2022-11-20T11:00:08.973Z,4796.00
2022-11-20T11:01:09.094Z,4624.00
2022-11-20T11:02:08.929Z,4608.00
2022-11-20T11:03:08.947Z,4572.00
2022-11-20T11:04:08.887Z,4584.00
2022-11-20T11:05:14.139Z,4656.00
2022-11-20T11:06:08.848Z,4600.00
2022-11-20T11:07:08.869Z,4504.00
2022-11-20T11:08:08.856Z,4388.00
2022-11-20T11:09:08.784Z,4396.00
2022-11-20T11:10:08.775Z,4472.00
2022-11-20T11:11:08.741Z,4392.00
2022-11-20T11:12:08.723Z,4324.00
2022-11-20T11:13:08.713Z,4412.00
2022-11-20T11:14:09.080Z,4636.00
2022-11-20T11:15:08.657Z,4848.00
2022-11-20T11:16:08.642Z,5008.00
2022-11-20T11:17:08.663Z,5052.00
2022-11-20T11:18:08.597Z,5148.00
2022-11-20T11:19:08.658Z,5272.00
2022-11-20T11:20:08.558Z,5328.00
2022-11-20T11:21:08.565Z,5264.00
2022-11-20T11:22:08.517Z,5128.00
2022-11-20T11:23:08.494Z,5084.00
2022-11-20T11:24:34.801Z,5128.00
2022-11-20T11:25:08.455Z,5244.00
2022-11-20T11:26:08.455Z,5348.00
2022-11-20T11:27:12.389Z,5484.00
2022-11-20T11:28:08.392Z,5496.00
2022-11-20T11:29:08.369Z,5284.00
2022-11-20T11:30:08.378Z,5140.00
2022-11-20T11:31:08.328Z,5136.00
2022-11-20T11:32:08.313Z,5096.00
2022-11-20T11:33:08.285Z,5096.00
2022-11-20T11:34:08.295Z,4824.00
2022-11-20T11:35:08.350Z,4724.00
2022-11-20T11:36:08.224Z,4588.00
2022-11-20T11:37:08.210Z,4608.00
2022-11-20T11:38:08.196Z,4452.00
2022-11-20T11:39:08.160Z,4228.00
2022-11-20T11:40:24.639Z,3980.00
2022-11-20T11:41:08.123Z,3680.00
2022-11-20T11:42:08.103Z,3524.00
2022-11-20T11:43:08.080Z,3508.00
2022-11-20T11:44:08.067Z,3748.00
2022-11-20T11:45:08.065Z,3912.00
2022-11-20T11:46:08.022Z,4092.00
2022-11-20T11:47:07.995Z,4188.00
2022-11-20T11:48:07.975Z,4244.00
2022-11-20T11:49:07.956Z,4368.00
2022-11-20T11:50:07.982Z,4552.00
2022-11-20T11:51:07.914Z,4504.00
2022-11-20T11:52:07.898Z,4416.00
2022-11-20T11:53:07.893Z,4228.00
2022-11-20T11:54:07.853Z,4180.00
2022-11-20T11:55:11.659Z,3788.00
2022-11-20T11:56:07.844Z,3528.00
2022-11-20T11:57:07.793Z,3420.00
2022-11-20T11:58:07.771Z,3300.00
2022-11-20T11:59:07.749Z,3016.00
2022-11-20T12:00:07.867Z,2936.00
2022-11-20T12:01:07.763Z,3028.00
2022-11-20T12:02:07.718Z,2908.00
2022-11-20T12:03:07.667Z,2948.00
2022-11-20T12:04:07.645Z,3444.00
2022-11-20T12:05:07.629Z,3916.00
2022-11-20T12:06:07.606Z,3980.00
2022-11-20T12:07:30.968Z,4092.00
2022-11-20T12:08:12.367Z,4488.00
2022-11-20T12:09:07.540Z,4604.00
2022-11-20T12:10:07.522Z,5104.00
2022-11-20T12:11:07.500Z,5572.00
2022-11-20T12:12:07.529Z,5688.00
2022-11-20T12:13:07.456Z,5788.00
2022-11-20T12:14:07.439Z,7132.00
2022-11-20T12:15:07.445Z,6468.00
2022-11-20T12:16:07.425Z,5564.00
2022-11-20T12:17:07.396Z,5580.00
2022-11-20T12:18:07.358Z,6076.00
2022-11-20T12:19:07.338Z,6952.00
2022-11-20T12:20:07.316Z,6128.00
2022-11-20T12:21:07.390Z,6368.00
2022-11-20T12:22:07.340Z,8340.00
2022-11-20T12:23:07.309Z,7840.00
2022-11-20T12:24:07.235Z,6736.00
2022-11-20T12:25:07.211Z,7476.00
2022-11-20T12:26:07.234Z,7708.00
2022-11-20T12:27:07.235Z,7356.00
2022-11-20T12:28:07.151Z,7504.00
2022-11-20T12:29:07.567Z,7468.00
2022-11-20T12:30:07.112Z,7348.00
2022-11-20T12:31:07.092Z,6872.00
2022-11-20T12:32:07.070Z,6784.00
2022-11-20T12:33:07.058Z,5796.00
2022-11-20T12:34:07.034Z,4392.00
2022-11-20T12:35:11.236Z,4072.00
2022-11-20T12:36:07.005Z,3912.00
2022-11-20T12:37:06.968Z,3752.00
2022-11-20T12:38:06.955Z,3868.00
2022-11-20T12:39:06.938Z,3576.00
2022-11-20T12:40:06.913Z,3024.00
2022-11-20T12:41:06.890Z,3072.00
2022-11-20T12:42:06.869Z,2980.00
2022-11-20T12:43:06.862Z,2964.00
2022-11-20T12:44:06.859Z,3140.00
2022-11-20T12:45:06.807Z,3648.00
2022-11-20T12:46:06.791Z,3564.00